createdAt,value
2018-02-01T00:01:59.021Z,6
2018-02-01T00:11:58.779Z,6
2018-02-01T00:21:58.807Z,8
2018-02-01T00:31:58.856Z,8
2018-02-01T00:41:58.802Z,8
2018-02-01T00:51:58.836Z,12
2018-02-01T01:01:58.776Z,12
2018-02-01T01:11:58.692Z,13
2018-02-01T01:21:58.810Z,12
2018-02-01T01:31:59.592Z,13
2018-02-01T01:41:58.814Z,12
2018-02-01T01:51:58.814Z,12
2018-02-01T02:01:58.826Z,13
2018-02-01T02:11:58.849Z,14
2018-02-01T02:21:59.236Z,13
2018-02-01T02:31:58.811Z,13
2018-02-01T02:41:58.886Z,16
2018-02-01T02:51:58.896Z,16
2018-02-01T03:01:58.839Z,14
2018-02-01T03:11:58.930Z,14
2018-02-01T03:21:59.148Z,16
2018-02-01T03:31:58.916Z,16
2018-02-01T03:41:58.885Z,15
2018-02-01T03:51:58.967Z,16
2018-02-01T04:01:58.871Z,15
2018-02-01T04:11:58.924Z,13
2018-02-01T04:21:58.846Z,14
2018-02-01T04:31:58.956Z,14
2018-02-01T04:41:58.916Z,13
2018-02-01T04:51:58.898Z,10
2018-02-01T05:01:58.955Z,10
2018-02-01T05:11:58.939Z,8
2018-02-01T05:21:59.003Z,8
2018-02-01T05:31:58.964Z,7
2018-02-01T05:41:59.031Z,7
2018-02-01T05:51:59.001Z,7
2018-02-01T06:01:59.106Z,6
2018-02-01T06:11:59.041Z,7
2018-02-01T06:21:59.041Z,8
2018-02-01T06:31:59.023Z,7
2018-02-01T06:41:58.950Z,6
2018-02-01T06:51:59.034Z,7
2018-02-01T07:01:58.972Z,7
2018-02-01T07:11:59.069Z,6
2018-02-01T07:21:59.227Z,7
2018-02-01T07:31:59.224Z,7
2018-02-01T07:41:59.069Z,6
2018-02-01T07:51:59.139Z,7
2018-02-01T08:02:01.336Z,8
2018-02-01T08:11:59.219Z,6
2018-02-01T08:21:59.139Z,6
2018-02-01T08:31:59.068Z,6
2018-02-01T08:41:59.211Z,7
2018-02-01T08:52:05.036Z,6
2018-02-01T09:01:59.233Z,6
2018-02-01T09:11:59.222Z,4
2018-02-01T09:21:59.410Z,5
2018-02-01T09:31:59.070Z,4
2018-02-01T09:41:59.417Z,5
2018-02-01T09:51:59.134Z,4
2018-02-01T10:01:59.234Z,5
2018-02-01T10:11:59.166Z,5
2018-02-01T10:21:59.247Z,5
2018-02-01T10:31:59.258Z,5
2018-02-01T10:41:59.157Z,4
2018-02-01T10:51:59.233Z,5
2018-02-01T11:01:59.229Z,6
2018-02-01T11:11:59.300Z,8
2018-02-01T11:21:59.213Z,9
2018-02-01T11:31:59.164Z,8
2018-02-01T11:41:59.435Z,8
2018-02-01T11:51:59.392Z,7
2018-02-01T12:01:59.267Z,7
2018-02-01T12:11:59.330Z,7
2018-02-01T12:21:59.200Z,7
2018-02-01T12:31:59.273Z,7
2018-02-01T12:41:59.334Z,6
2018-02-01T12:51:59.417Z,6
2018-02-01T13:01:59.404Z,7
2018-02-01T13:12:03.097Z,5
2018-02-01T13:21:59.464Z,6
2018-02-01T13:31:59.830Z,6
2018-02-01T13:41:59.823Z,7
2018-02-01T13:51:59.306Z,6
2018-02-01T14:01:59.696Z,6
2018-02-01T14:11:59.411Z,6
2018-02-01T14:21:59.370Z,6
2018-02-01T14:31:59.361Z,5
2018-02-01T14:41:59.700Z,5
2018-02-01T14:51:59.448Z,7
2018-02-01T15:01:59.400Z,6
2018-02-01T15:11:59.638Z,8
2018-02-01T15:21:59.700Z,7
2018-02-01T15:31:59.563Z,7
2018-02-01T15:41:59.515Z,6
2018-02-01T15:51:59.791Z,6
2018-02-01T16:02:10.055Z,4
2018-02-01T16:12:02.949Z,5
2018-02-01T16:21:59.868Z,6
2018-02-01T16:42:51.844Z,8
2018-02-01T16:43:32.342Z,8
2018-02-01T16:53:32.732Z,9
2018-02-01T17:03:32.468Z,10
2018-02-01T17:13:32.741Z,14
2018-02-01T17:23:32.923Z,9
2018-02-01T17:33:33.778Z,9
2018-02-01T17:43:32.651Z,11
2018-02-01T17:53:32.475Z,12
2018-02-01T18:03:33.155Z,10
2018-02-01T18:13:32.626Z,11
2018-02-01T18:23:32.580Z,8
2018-02-01T18:33:32.479Z,6
2018-02-01T18:43:32.671Z,6
2018-02-01T18:53:32.610Z,7
2018-02-01T19:03:32.793Z,6
2018-02-01T19:13:32.622Z,7
2018-02-01T19:23:32.536Z,8
2018-02-01T19:33:32.644Z,7
2018-02-01T19:43:33.308Z,10
2018-02-01T19:53:32.699Z,11
2018-02-01T20:03:32.786Z,13
2018-02-01T20:13:32.567Z,12
2018-02-01T20:23:32.664Z,11
2018-02-01T20:33:32.647Z,13
2018-02-01T20:43:32.673Z,12
2018-02-01T20:53:32.869Z,11
2018-02-01T21:03:32.717Z,11
2018-02-01T21:13:32.660Z,9
2018-02-01T21:23:32.766Z,9
2018-02-01T21:33:32.664Z,10
2018-02-01T21:43:32.667Z,9
2018-02-01T21:53:32.637Z,9
2018-02-01T22:03:33.122Z,8
2018-02-01T22:13:32.729Z,10
2018-02-01T22:23:32.669Z,8
2018-02-01T22:33:32.765Z,9
2018-02-01T22:43:32.819Z,8
2018-02-01T22:53:32.884Z,7
2018-02-01T23:03:33.270Z,8
2018-02-01T23:13:32.854Z,7
2018-02-01T23:23:32.972Z,7
2018-02-01T23:33:32.812Z,9
2018-02-01T23:43:32.782Z,9
2018-02-01T23:53:32.674Z,9
